Prague/Václav Havel Airport

Airport
ICAO code: 
LKPR
IATA Code: 
PRG
Summary
ICAO Region: 
EUR
Territory: 
Location: 
Ruzyně, Prague
Serving: 
Prague
Elevation: 
1247 ft
Coordinates: 
Aerial View: 
50° 6' 6" N, 14° 15' 36" E
Metar
Observation
LKPR 071700Z VRB02KT 9000 SCT012 BKN020 00/M00 Q1011 NOSIG
Station
Praha / Ruzyne
Date/Time
2021-12-07 17:00:00
Wind speed
02 kts
Lowest cloud amount
scattered clouds
Temperature
0°C
Dew point
-0°C
Humidity
100%
QNH
1011 hPa
Weather condition
n/a

Description

International airport serving capital of the Czech Republic.

Climatology

Humid Continental climate (Köppen climate classification Dfb) - Variable weather patterns and a large seasonal temperature variance. Summers are often warm and humid with frequent thunderstorms and winters can be very cold with frequent snowfall and persistent snow cover.

Runways

Designator Length Width Surface Rops
4/22 2120 60 ASP Yes/Yes
13/31 3250 45 CON Yes/Yes
6/24 3715 45 CON Yes/Yes
Airport map: 
Aerial View: 

SKYbrary Partners:

Safety knowledge contributed by: